sensor_id;sensor_type;location;lat;lon;timestamp;P1;durP1;ratioP1;P2;durP2;ratioP2
20020;SDS011;10171;42.694;23.318;2022-07-29T00:00:08;13.07;;;10.05;;
20020;SDS011;10171;42.694;23.318;2022-07-29T00:02:34;11.25;;;9.57;;
20020;SDS011;10171;42.694;23.318;2022-07-29T00:05:00;12.32;;;10.35;;
20020;SDS011;10171;42.694;23.318;2022-07-29T00:07:26;13.88;;;10.18;;
20020;SDS011;10171;42.694;23.318;2022-07-29T00:09:52;13.65;;;9.77;;
20020;SDS011;10171;42.694;23.318;2022-07-29T00:12:21;11.75;;;10.05;;
20020;SDS011;10171;42.694;23.318;2022-07-29T00:14:48;12.00;;;9.30;;
20020;SDS011;10171;42.694;23.318;2022-07-29T00:17:13;11.50;;;9.30;;
20020;SDS011;10171;42.694;23.318;2022-07-29T00:19:39;10.23;;;8.98;;
20020;SDS011;10171;42.694;23.318;2022-07-29T00:22:04;13.30;;;10.00;;
20020;SDS011;10171;42.694;23.318;2022-07-29T00:24:30;14.82;;;9.63;;
20020;SDS011;10171;42.694;23.318;2022-07-29T00:26:55;11.05;;;9.90;;
20020;SDS011;10171;42.694;23.318;2022-07-29T00:29:20;13.30;;;9.90;;
20020;SDS011;10171;42.694;23.318;2022-07-29T00:31:46;11.60;;;9.65;;
20020;SDS011;10171;42.694;23.318;2022-07-29T00:34:11;10.88;;;9.02;;
20020;SDS011;10171;42.694;23.318;2022-07-29T00:36:57;12.77;;;9.93;;
20020;SDS011;10171;42.694;23.318;2022-07-29T00:39:22;14.20;;;10.60;;
20020;SDS011;10171;42.694;23.318;2022-07-29T00:41:48;11.13;;;9.82;;
20020;SDS011;10171;42.694;23.318;2022-07-29T00:44:14;10.52;;;9.43;;
20020;SDS011;10171;42.694;23.318;2022-07-29T00:46:40;13.45;;;10.27;;
20020;SDS011;10171;42.694;23.318;2022-07-29T00:49:05;11.55;;;10.35;;
20020;SDS011;10171;42.694;23.318;2022-07-29T00:51:32;14.52;;;11.95;;
20020;SDS011;10171;42.694;23.318;2022-07-29T00:54:00;16.80;;;12.80;;
20020;SDS011;10171;42.694;23.318;2022-07-29T00:56:26;15.32;;;12.15;;
20020;SDS011;10171;42.694;23.318;2022-07-29T00:58:58;15.80;;;12.65;;
20020;SDS011;10171;42.694;23.318;2022-07-29T01:01:24;15.07;;;12.30;;
20020;SDS011;10171;42.694;23.318;2022-07-29T01:03:50;14.52;;;11.90;;
20020;SDS011;10171;42.694;23.318;2022-07-29T01:06:16;15.18;;;12.05;;
20020;SDS011;10171;42.694;23.318;2022-07-29T01:08:43;16.02;;;11.75;;
20020;SDS011;10171;42.694;23.318;2022-07-29T01:11:10;16.48;;;12.88;;
20020;SDS011;10171;42.694;23.318;2022-07-29T01:13:36;15.70;;;12.52;;
20020;SDS011;10171;42.694;23.318;2022-07-29T01:16:11;15.57;;;12.45;;
20020;SDS011;10171;42.694;23.318;2022-07-29T01:18:44;15.48;;;12.07;;
20020;SDS011;10171;42.694;23.318;2022-07-29T01:21:32;15.07;;;12.32;;
20020;SDS011;10171;42.694;23.318;2022-07-29T01:26:45;16.95;;;12.40;;
20020;SDS011;10171;42.694;23.318;2022-07-29T01:32:01;16.63;;;12.65;;
20020;SDS011;10171;42.694;23.318;2022-07-29T01:39:36;18.08;;;13.13;;
20020;SDS011;10171;42.694;23.318;2022-07-29T01:42:14;16.45;;;13.32;;
20020;SDS011;10171;42.694;23.318;2022-07-29T01:50:15;18.40;;;13.40;;
20020;SDS011;10171;42.694;23.318;2022-07-29T01:52:45;19.30;;;14.23;;
20020;SDS011;10171;42.694;23.318;2022-07-29T01:55:17;16.63;;;12.95;;
20020;SDS011;10171;42.694;23.318;2022-07-29T01:57:47;14.57;;;12.55;;
20020;SDS011;10171;42.694;23.318;2022-07-29T02:00:14;17.15;;;12.65;;
20020;SDS011;10171;42.694;23.318;2022-07-29T02:02:41;16.67;;;13.02;;
20020;SDS011;10171;42.694;23.318;2022-07-29T02:05:10;16.38;;;13.07;;
20020;SDS011;10171;42.694;23.318;2022-07-29T02:07:40;14.88;;;13.00;;
20020;SDS011;10171;42.694;23.318;2022-07-29T02:10:07;19.13;;;13.77;;
20020;SDS011;10171;42.694;23.318;2022-07-29T02:12:34;17.95;;;13.75;;
20020;SDS011;10171;42.694;23.318;2022-07-29T02:15:01;16.77;;;13.18;;
20020;SDS011;10171;42.694;23.318;2022-07-29T02:17:32;14.98;;;12.45;;
20020;SDS011;10171;42.694;23.318;2022-07-29T02:20:00;17.73;;;14.20;;
20020;SDS011;10171;42.694;23.318;2022-07-29T02:22:28;21.20;;;14.00;;
20020;SDS011;10171;42.694;23.318;2022-07-29T02:24:55;16.63;;;13.48;;
20020;SDS011;10171;42.694;23.318;2022-07-29T02:27:23;19.70;;;12.27;;
20020;SDS011;10171;42.694;23.318;2022-07-29T02:29:50;17.90;;;13.55;;
20020;SDS011;10171;42.694;23.318;2022-07-29T02:32:18;16.40;;;13.48;;
20020;SDS011;10171;42.694;23.318;2022-07-29T02:34:46;18.27;;;13.30;;
20020;SDS011;10171;42.694;23.318;2022-07-29T02:37:13;15.65;;;12.77;;
20020;SDS011;10171;42.694;23.318;2022-07-29T02:39:42;15.35;;;12.40;;
20020;SDS011;10171;42.694;23.318;2022-07-29T02:42:10;17.63;;;13.20;;
20020;SDS011;10171;42.694;23.318;2022-07-29T02:44:39;16.73;;;13.32;;
20020;SDS011;10171;42.694;23.318;2022-07-29T02:47:19;17.25;;;13.88;;
20020;SDS011;10171;42.694;23.318;2022-07-29T02:49:57;17.17;;;13.00;;
20020;SDS011;10171;42.694;23.318;2022-07-29T03:00:53;16.20;;;12.50;;
20020;SDS011;10171;42.694;23.318;2022-07-29T03:03:21;17.20;;;13.60;;
20020;SDS011;10171;42.694;23.318;2022-07-29T03:05:52;19.83;;;14.75;;
20020;SDS011;10171;42.694;23.318;2022-07-29T03:08:20;18.58;;;14.57;;
20020;SDS011;10171;42.694;23.318;2022-07-29T03:10:47;16.77;;;12.98;;
20020;SDS011;10171;42.694;23.318;2022-07-29T03:13:13;18.42;;;13.25;;
20020;SDS011;10171;42.694;23.318;2022-07-29T03:15:42;18.23;;;13.65;;
20020;SDS011;10171;42.694;23.318;2022-07-29T03:18:09;16.58;;;13.32;;
20020;SDS011;10171;42.694;23.318;2022-07-29T03:20:34;15.30;;;12.43;;
20020;SDS011;10171;42.694;23.318;2022-07-29T03:22:59;15.85;;;12.45;;
20020;SDS011;10171;42.694;23.318;2022-07-29T03:25:25;15.63;;;12.15;;
20020;SDS011;10171;42.694;23.318;2022-07-29T03:27:52;15.25;;;12.02;;
20020;SDS011;10171;42.694;23.318;2022-07-29T03:30:17;16.40;;;12.88;;
20020;SDS011;10171;42.694;23.318;2022-07-29T03:32:43;16.95;;;11.77;;
20020;SDS011;10171;42.694;23.318;2022-07-29T03:35:09;16.00;;;12.75;;
20020;SDS011;10171;42.694;23.318;2022-07-29T03:37:35;17.52;;;12.70;;
20020;SDS011;10171;42.694;23.318;2022-07-29T03:40:02;15.48;;;12.35;;
20020;SDS011;10171;42.694;23.318;2022-07-29T03:42:33;15.70;;;12.73;;
20020;SDS011;10171;42.694;23.318;2022-07-29T03:45:02;16.08;;;12.25;;
20020;SDS011;10171;42.694;23.318;2022-07-29T03:47:31;18.63;;;12.20;;
20020;SDS011;10171;42.694;23.318;2022-07-29T03:50:00;17.48;;;11.63;;
20020;SDS011;10171;42.694;23.318;2022-07-29T03:52:29;15.23;;;12.13;;
20020;SDS011;10171;42.694;23.318;2022-07-29T03:54:55;16.40;;;10.95;;
20020;SDS011;10171;42.694;23.318;2022-07-29T03:57:22;15.63;;;11.40;;
20020;SDS011;10171;42.694;23.318;2022-07-29T03:59:50;14.45;;;11.48;;
20020;SDS011;10171;42.694;23.318;2022-07-29T04:02:16;18.00;;;12.20;;
20020;SDS011;10171;42.694;23.318;2022-07-29T04:04:42;13.25;;;10.38;;
20020;SDS011;10171;42.694;23.318;2022-07-29T04:07:07;13.90;;;11.55;;
20020;SDS011;10171;42.694;23.318;2022-07-29T04:09:38;16.92;;;12.05;;
20020;SDS011;10171;42.694;23.318;2022-07-29T04:12:03;14.50;;;11.20;;
20020;SDS011;10171;42.694;23.318;2022-07-29T04:14:30;14.95;;;11.60;;
20020;SDS011;10171;42.694;23.318;2022-07-29T04:16:56;16.88;;;12.68;;
20020;SDS011;10171;42.694;23.318;2022-07-29T04:19:22;17.60;;;12.02;;
20020;SDS011;10171;42.694;23.318;2022-07-29T04:21:47;14.00;;;11.48;;
20020;SDS011;10171;42.694;23.318;2022-07-29T04:24:13;14.25;;;10.52;;
20020;SDS011;10171;42.694;23.318;2022-07-29T04:26:38;15.35;;;11.10;;
20020;SDS011;10171;42.694;23.318;2022-07-29T04:29:04;15.30;;;11.57;;
20020;SDS011;10171;42.694;23.318;2022-07-29T04:31:29;17.65;;;11.15;;
20020;SDS011;10171;42.694;23.318;2022-07-29T04:33:54;14.13;;;10.02;;
20020;SDS011;10171;42.694;23.318;2022-07-29T04:36:20;12.85;;;10.98;;
20020;SDS011;10171;42.694;23.318;2022-07-29T04:38:45;14.70;;;10.35;;
20020;SDS011;10171;42.694;23.318;2022-07-29T04:41:10;17.02;;;10.32;;
20020;SDS011;10171;42.694;23.318;2022-07-29T04:43:36;13.20;;;10.32;;
20020;SDS011;10171;42.694;23.318;2022-07-29T04:46:02;14.25;;;9.90;;
20020;SDS011;10171;42.694;23.318;2022-07-29T04:48:28;12.57;;;10.15;;
20020;SDS011;10171;42.694;23.318;2022-07-29T04:50:54;14.48;;;10.30;;
20020;SDS011;10171;42.694;23.318;2022-07-29T04:53:20;19.67;;;12.73;;
20020;SDS011;10171;42.694;23.318;2022-07-29T04:55:45;11.75;;;10.02;;
20020;SDS011;10171;42.694;23.318;2022-07-29T04:58:11;12.40;;;9.82;;
20020;SDS011;10171;42.694;23.318;2022-07-29T05:00:36;13.05;;;9.82;;
20020;SDS011;10171;42.694;23.318;2022-07-29T05:03:03;10.95;;;9.38;;
20020;SDS011;10171;42.694;23.318;2022-07-29T05:05:28;13.50;;;10.07;;
20020;SDS011;10171;42.694;23.318;2022-07-29T05:07:54;17.75;;;9.68;;
20020;SDS011;10171;42.694;23.318;2022-07-29T05:10:20;12.90;;;9.57;;
20020;SDS011;10171;42.694;23.318;2022-07-29T05:12:45;10.68;;;8.43;;
20020;SDS011;10171;42.694;23.318;2022-07-29T05:15:11;10.23;;;8.40;;
20020;SDS011;10171;42.694;23.318;2022-07-29T05:17:37;12.73;;;9.02;;
20020;SDS011;10171;42.694;23.318;2022-07-29T05:20:02;13.60;;;8.75;;
20020;SDS011;10171;42.694;23.318;2022-07-29T05:22:28;10.98;;;8.18;;
20020;SDS011;10171;42.694;23.318;2022-07-29T05:24:54;11.88;;;8.57;;
20020;SDS011;10171;42.694;23.318;2022-07-29T05:27:19;14.23;;;9.07;;
20020;SDS011;10171;42.694;23.318;2022-07-29T05:29:45;10.50;;;8.38;;
20020;SDS011;10171;42.694;23.318;2022-07-29T05:32:10;10.98;;;8.40;;
20020;SDS011;10171;42.694;23.318;2022-07-29T05:34:36;14.23;;;8.88;;
20020;SDS011;10171;42.694;23.318;2022-07-29T05:37:01;11.15;;;8.25;;
20020;SDS011;10171;42.694;23.318;2022-07-29T05:39:27;10.95;;;8.07;;
20020;SDS011;10171;42.694;23.318;2022-07-29T05:41:52;12.55;;;8.77;;
20020;SDS011;10171;42.694;23.318;2022-07-29T05:44:18;12.88;;;8.52;;
20020;SDS011;10171;42.694;23.318;2022-07-29T05:46:43;12.10;;;8.23;;
20020;SDS011;10171;42.694;23.318;2022-07-29T05:49:08;13.63;;;8.73;;
20020;SDS011;10171;42.694;23.318;2022-07-29T05:51:34;11.48;;;8.00;;
20020;SDS011;10171;42.694;23.318;2022-07-29T05:54:00;17.23;;;9.70;;
20020;SDS011;10171;42.694;23.318;2022-07-29T05:56:25;17.50;;;9.20;;
20020;SDS011;10171;42.694;23.318;2022-07-29T05:58:51;17.73;;;8.73;;
20020;SDS011;10171;42.694;23.318;2022-07-29T06:01:17;11.13;;;7.50;;
20020;SDS011;10171;42.694;23.318;2022-07-29T06:03:42;10.65;;;7.85;;
20020;SDS011;10171;42.694;23.318;2022-07-29T06:06:08;12.32;;;7.28;;
20020;SDS011;10171;42.694;23.318;2022-07-29T06:08:33;12.93;;;8.60;;
20020;SDS011;10171;42.694;23.318;2022-07-29T06:11:00;10.10;;;7.75;;
20020;SDS011;10171;42.694;23.318;2022-07-29T06:13:28;10.70;;;6.97;;
20020;SDS011;10171;42.694;23.318;2022-07-29T06:15:54;12.05;;;8.20;;
20020;SDS011;10171;42.694;23.318;2022-07-29T06:18:20;8.52;;;7.18;;
20020;SDS011;10171;42.694;23.318;2022-07-29T06:20:48;9.10;;;6.72;;
20020;SDS011;10171;42.694;23.318;2022-07-29T06:23:18;10.13;;;6.88;;
20020;SDS011;10171;42.694;23.318;2022-07-29T06:25:44;10.70;;;6.70;;
20020;SDS011;10171;42.694;23.318;2022-07-29T06:28:10;8.65;;;6.47;;
20020;SDS011;10171;42.694;23.318;2022-07-29T06:30:35;9.07;;;6.72;;
20020;SDS011;10171;42.694;23.318;2022-07-29T06:33:01;9.80;;;7.75;;
20020;SDS011;10171;42.694;23.318;2022-07-29T06:35:27;11.90;;;7.65;;
20020;SDS011;10171;42.694;23.318;2022-07-29T06:37:53;12.48;;;7.03;;
20020;SDS011;10171;42.694;23.318;2022-07-29T06:40:19;7.65;;;6.40;;
20020;SDS011;10171;42.694;23.318;2022-07-29T06:43:03;8.98;;;7.03;;
20020;SDS011;10171;42.694;23.318;2022-07-29T06:45:29;8.25;;;6.57;;
20020;SDS011;10171;42.694;23.318;2022-07-29T06:47:54;7.95;;;6.57;;
20020;SDS011;10171;42.694;23.318;2022-07-29T06:50:19;11.10;;;6.45;;
20020;SDS011;10171;42.694;23.318;2022-07-29T06:52:46;9.18;;;6.43;;
20020;SDS011;10171;42.694;23.318;2022-07-29T06:55:12;6.47;;;5.88;;
20020;SDS011;10171;42.694;23.318;2022-07-29T06:57:38;8.82;;;6.85;;
20020;SDS011;10171;42.694;23.318;2022-07-29T07:00:06;10.85;;;7.72;;
20020;SDS011;10171;42.694;23.318;2022-07-29T07:02:32;9.55;;;6.75;;
20020;SDS011;10171;42.694;23.318;2022-07-29T07:04:57;9.95;;;6.38;;
20020;SDS011;10171;42.694;23.318;2022-07-29T07:07:23;8.32;;;6.88;;
20020;SDS011;10171;42.694;23.318;2022-07-29T07:09:49;13.52;;;6.65;;
20020;SDS011;10171;42.694;23.318;2022-07-29T07:12:14;8.00;;;6.28;;
20020;SDS011;10171;42.694;23.318;2022-07-29T07:14:40;7.57;;;5.93;;
20020;SDS011;10171;42.694;23.318;2022-07-29T07:17:05;9.10;;;6.65;;
20020;SDS011;10171;42.694;23.318;2022-07-29T07:19:32;10.20;;;5.95;;
20020;SDS011;10171;42.694;23.318;2022-07-29T07:21:57;8.05;;;6.40;;
20020;SDS011;10171;42.694;23.318;2022-07-29T07:24:22;7.63;;;5.40;;
20020;SDS011;10171;42.694;23.318;2022-07-29T07:26:48;7.90;;;6.13;;
20020;SDS011;10171;42.694;23.318;2022-07-29T07:29:13;7.72;;;5.80;;
20020;SDS011;10171;42.694;23.318;2022-07-29T07:31:39;10.13;;;6.55;;
20020;SDS011;10171;42.694;23.318;2022-07-29T07:34:04;9.02;;;6.88;;
20020;SDS011;10171;42.694;23.318;2022-07-29T07:36:30;7.05;;;5.88;;
20020;SDS011;10171;42.694;23.318;2022-07-29T07:38:55;12.88;;;6.72;;
20020;SDS011;10171;42.694;23.318;2022-07-29T07:41:21;6.53;;;5.78;;
20020;SDS011;10171;42.694;23.318;2022-07-29T07:43:47;6.07;;;5.47;;
20020;SDS011;10171;42.694;23.318;2022-07-29T07:46:13;7.35;;;5.18;;
20020;SDS011;10171;42.694;23.318;2022-07-29T07:48:38;9.30;;;6.18;;
20020;SDS011;10171;42.694;23.318;2022-07-29T07:51:03;8.68;;;5.15;;
20020;SDS011;10171;42.694;23.318;2022-07-29T07:53:29;7.45;;;5.95;;
20020;SDS011;10171;42.694;23.318;2022-07-29T07:55:55;8.63;;;5.13;;
20020;SDS011;10171;42.694;23.318;2022-07-29T07:58:21;6.18;;;5.45;;
20020;SDS011;10171;42.694;23.318;2022-07-29T08:00:46;7.97;;;5.68;;
20020;SDS011;10171;42.694;23.318;2022-07-29T08:03:12;5.97;;;5.40;;
20020;SDS011;10171;42.694;23.318;2022-07-29T08:05:38;6.28;;;5.43;;
20020;SDS011;10171;42.694;23.318;2022-07-29T08:08:04;7.47;;;5.63;;
20020;SDS011;10171;42.694;23.318;2022-07-29T08:10:33;6.40;;;5.53;;
20020;SDS011;10171;42.694;23.318;2022-07-29T08:13:18;6.55;;;5.40;;
20020;SDS011;10171;42.694;23.318;2022-07-29T08:15:45;8.35;;;5.13;;
20020;SDS011;10171;42.694;23.318;2022-07-29T08:18:11;8.73;;;5.25;;
20020;SDS011;10171;42.694;23.318;2022-07-29T08:20:37;8.43;;;5.20;;
20020;SDS011;10171;42.694;23.318;2022-07-29T08:23:04;6.13;;;5.53;;
20020;SDS011;10171;42.694;23.318;2022-07-29T08:25:31;6.68;;;4.35;;
20020;SDS011;10171;42.694;23.318;2022-07-29T08:27:57;8.57;;;5.25;;
20020;SDS011;10171;42.694;23.318;2022-07-29T08:30:24;5.07;;;4.55;;
20020;SDS011;10171;42.694;23.318;2022-07-29T08:32:49;6.00;;;5.40;;
20020;SDS011;10171;42.694;23.318;2022-07-29T08:35:17;6.35;;;5.72;;
20020;SDS011;10171;42.694;23.318;2022-07-29T08:37:43;6.47;;;5.88;;
20020;SDS011;10171;42.694;23.318;2022-07-29T08:40:09;6.72;;;6.00;;
20020;SDS011;10171;42.694;23.318;2022-07-29T08:42:35;6.47;;;5.18;;
20020;SDS011;10171;42.694;23.318;2022-07-29T08:45:00;4.75;;;4.28;;
20020;SDS011;10171;42.694;23.318;2022-07-29T08:47:27;6.70;;;4.25;;
20020;SDS011;10171;42.694;23.318;2022-07-29T08:49:52;5.40;;;4.22;;
20020;SDS011;10171;42.694;23.318;2022-07-29T08:52:18;7.60;;;4.47;;
20020;SDS011;10171;42.694;23.318;2022-07-29T08:54:45;8.98;;;4.72;;
20020;SDS011;10171;42.694;23.318;2022-07-29T08:57:14;5.70;;;4.53;;
20020;SDS011;10171;42.694;23.318;2022-07-29T08:59:41;6.93;;;4.28;;
20020;SDS011;10171;42.694;23.318;2022-07-29T09:02:10;5.75;;;3.92;;
20020;SDS011;10171;42.694;23.318;2022-07-29T09:04:40;5.72;;;4.82;;
20020;SDS011;10171;42.694;23.318;2022-07-29T09:07:06;6.30;;;4.40;;
20020;SDS011;10171;42.694;23.318;2022-07-29T09:09:33;6.78;;;4.10;;
20020;SDS011;10171;42.694;23.318;2022-07-29T09:12:00;6.00;;;4.95;;
20020;SDS011;10171;42.694;23.318;2022-07-29T09:14:26;7.38;;;5.95;;
20020;SDS011;10171;42.694;23.318;2022-07-29T09:19:20;7.85;;;4.93;;
20020;SDS011;10171;42.694;23.318;2022-07-29T09:21:56;5.65;;;4.30;;
20020;SDS011;10171;42.694;23.318;2022-07-29T09:24:24;4.55;;;4.15;;
20020;SDS011;10171;42.694;23.318;2022-07-29T09:27:12;4.45;;;4.05;;
20020;SDS011;10171;42.694;23.318;2022-07-29T09:29:43;5.93;;;4.47;;
20020;SDS011;10171;42.694;23.318;2022-07-29T09:32:09;6.50;;;4.47;;
20020;SDS011;10171;42.694;23.318;2022-07-29T09:34:35;9.50;;;4.43;;
20020;SDS011;10171;42.694;23.318;2022-07-29T09:37:01;9.18;;;5.03;;
20020;SDS011;10171;42.694;23.318;2022-07-29T09:42:01;6.13;;;4.38;;
20020;SDS011;10171;42.694;23.318;2022-07-29T09:44:41;7.20;;;4.82;;
20020;SDS011;10171;42.694;23.318;2022-07-29T09:47:13;5.65;;;4.90;;
20020;SDS011;10171;42.694;23.318;2022-07-29T09:49:50;6.45;;;4.50;;
20020;SDS011;10171;42.694;23.318;2022-07-29T09:52:16;7.25;;;5.05;;
20020;SDS011;10171;42.694;23.318;2022-07-29T09:54:41;7.32;;;5.50;;
20020;SDS011;10171;42.694;23.318;2022-07-29T09:57:08;8.60;;;4.90;;
20020;SDS011;10171;42.694;23.318;2022-07-29T09:59:55;6.40;;;4.95;;
20020;SDS011;10171;42.694;23.318;2022-07-29T10:02:29;5.78;;;4.63;;
20020;SDS011;10171;42.694;23.318;2022-07-29T10:04:57;9.27;;;5.18;;
20020;SDS011;10171;42.694;23.318;2022-07-29T10:07:23;7.75;;;4.97;;
20020;SDS011;10171;42.694;23.318;2022-07-29T10:09:52;5.88;;;4.72;;
20020;SDS011;10171;42.694;23.318;2022-07-29T10:12:19;7.28;;;4.68;;
20020;SDS011;10171;42.694;23.318;2022-07-29T10:14:45;6.05;;;4.68;;
20020;SDS011;10171;42.694;23.318;2022-07-29T10:17:11;5.93;;;4.40;;
20020;SDS011;10171;42.694;23.318;2022-07-29T10:19:37;5.03;;;4.13;;
20020;SDS011;10171;42.694;23.318;2022-07-29T10:22:07;5.63;;;4.93;;
20020;SDS011;10171;42.694;23.318;2022-07-29T10:24:34;8.23;;;5.18;;
20020;SDS011;10171;42.694;23.318;2022-07-29T10:27:01;5.68;;;5.05;;
20020;SDS011;10171;42.694;23.318;2022-07-29T10:29:28;4.45;;;4.05;;
20020;SDS011;10171;42.694;23.318;2022-07-29T10:40:22;6.40;;;4.80;;
20020;SDS011;10171;42.694;23.318;2022-07-29T10:43:22;4.45;;;4.03;;
20020;SDS011;10171;42.694;23.318;2022-07-29T10:45:54;4.90;;;4.40;;
20020;SDS011;10171;42.694;23.318;2022-07-29T10:48:22;5.28;;;4.45;;
20020;SDS011;10171;42.694;23.318;2022-07-29T10:51:21;5.65;;;5.07;;
20020;SDS011;10171;42.694;23.318;2022-07-29T10:53:50;6.38;;;5.15;;
20020;SDS011;10171;42.694;23.318;2022-07-29T10:56:29;5.72;;;5.05;;
20020;SDS011;10171;42.694;23.318;2022-07-29T11:01:48;3.97;;;3.67;;
20020;SDS011;10171;42.694;23.318;2022-07-29T11:04:15;7.68;;;5.20;;
20020;SDS011;10171;42.694;23.318;2022-07-29T11:09:29;5.72;;;4.75;;
20020;SDS011;10171;42.694;23.318;2022-07-29T11:11:55;6.45;;;4.50;;
20020;SDS011;10171;42.694;23.318;2022-07-29T11:17:23;4.78;;;4.18;;
20020;SDS011;10171;42.694;23.318;2022-07-29T11:19:50;7.82;;;6.95;;
20020;SDS011;10171;42.694;23.318;2022-07-29T11:22:34;6.82;;;6.13;;
20020;SDS011;10171;42.694;23.318;2022-07-29T11:25:14;4.97;;;4.47;;
20020;SDS011;10171;42.694;23.318;2022-07-29T11:27:40;4.95;;;4.45;;
20020;SDS011;10171;42.694;23.318;2022-07-29T11:30:06;5.35;;;4.32;;
20020;SDS011;10171;42.694;23.318;2022-07-29T11:32:40;7.80;;;5.05;;
20020;SDS011;10171;42.694;23.318;2022-07-29T11:37:35;5.22;;;4.57;;
20020;SDS011;10171;42.694;23.318;2022-07-29T11:45:16;6.68;;;4.70;;
20020;SDS011;10171;42.694;23.318;2022-07-29T11:50:11;5.85;;;4.90;;
20020;SDS011;10171;42.694;23.318;2022-07-29T11:52:39;5.45;;;4.88;;
20020;SDS011;10171;42.694;23.318;2022-07-29T11:57:47;6.35;;;4.50;;
20020;SDS011;10171;42.694;23.318;2022-07-29T12:02:56;7.15;;;5.53;;
20020;SDS011;10171;42.694;23.318;2022-07-29T12:05:42;5.22;;;4.72;;
20020;SDS011;10171;42.694;23.318;2022-07-29T12:08:16;35.28;;;6.55;;
20020;SDS011;10171;42.694;23.318;2022-07-29T12:10:47;6.00;;;5.43;;
20020;SDS011;10171;42.694;23.318;2022-07-29T12:13:15;6.20;;;5.20;;
20020;SDS011;10171;42.694;23.318;2022-07-29T12:15:50;5.95;;;5.25;;
20020;SDS011;10171;42.694;23.318;2022-07-29T12:18:18;6.38;;;4.95;;
20020;SDS011;10171;42.694;23.318;2022-07-29T12:20:45;5.57;;;4.85;;
20020;SDS011;10171;42.694;23.318;2022-07-29T12:23:11;5.72;;;5.22;;
20020;SDS011;10171;42.694;23.318;2022-07-29T12:25:37;5.15;;;4.63;;
20020;SDS011;10171;42.694;23.318;2022-07-29T12:28:05;7.07;;;5.18;;
20020;SDS011;10171;42.694;23.318;2022-07-29T12:30:40;7.13;;;5.20;;
20020;SDS011;10171;42.694;23.318;2022-07-29T12:33:31;5.97;;;4.65;;
20020;SDS011;10171;42.694;23.318;2022-07-29T12:35:57;5.35;;;4.78;;
20020;SDS011;10171;42.694;23.318;2022-07-29T12:38:23;6.57;;;4.50;;
20020;SDS011;10171;42.694;23.318;2022-07-29T12:40:49;6.78;;;5.35;;
20020;SDS011;10171;42.694;23.318;2022-07-29T12:43:18;5.65;;;5.15;;
20020;SDS011;10171;42.694;23.318;2022-07-29T12:45:49;8.57;;;5.43;;
20020;SDS011;10171;42.694;23.318;2022-07-29T12:48:17;6.45;;;5.25;;
20020;SDS011;10171;42.694;23.318;2022-07-29T12:50:58;6.05;;;5.47;;
20020;SDS011;10171;42.694;23.318;2022-07-29T12:53:25;8.77;;;6.22;;
20020;SDS011;10171;42.694;23.318;2022-07-29T12:55:52;7.65;;;5.65;;
20020;SDS011;10171;42.694;23.318;2022-07-29T12:58:28;6.38;;;5.85;;
20020;SDS011;10171;42.694;23.318;2022-07-29T13:01:07;8.00;;;6.55;;
20020;SDS011;10171;42.694;23.318;2022-07-29T13:03:47;6.97;;;6.18;;
20020;SDS011;10171;42.694;23.318;2022-07-29T13:11:52;7.10;;;5.45;;
20020;SDS011;10171;42.694;23.318;2022-07-29T13:19:39;6.60;;;5.88;;
20020;SDS011;10171;42.694;23.318;2022-07-29T13:22:13;6.85;;;6.13;;
20020;SDS011;10171;42.694;23.318;2022-07-29T13:27:24;7.10;;;6.50;;
20020;SDS011;10171;42.694;23.318;2022-07-29T13:29:52;7.18;;;6.40;;
20020;SDS011;10171;42.694;23.318;2022-07-29T13:32:21;8.07;;;6.10;;
20020;SDS011;10171;42.694;23.318;2022-07-29T13:34:47;7.60;;;6.32;;
20020;SDS011;10171;42.694;23.318;2022-07-29T13:37:13;7.68;;;5.93;;
20020;SDS011;10171;42.694;23.318;2022-07-29T13:39:38;6.95;;;6.35;;
20020;SDS011;10171;42.694;23.318;2022-07-29T13:42:04;7.00;;;6.30;;
20020;SDS011;10171;42.694;23.318;2022-07-29T13:44:31;9.05;;;6.80;;
20020;SDS011;10171;42.694;23.318;2022-07-29T13:46:57;6.68;;;6.07;;
20020;SDS011;10171;42.694;23.318;2022-07-29T13:49:24;6.63;;;5.80;;
20020;SDS011;10171;42.694;23.318;2022-07-29T13:51:49;8.13;;;6.32;;
20020;SDS011;10171;42.694;23.318;2022-07-29T13:54:15;6.45;;;5.85;;
20020;SDS011;10171;42.694;23.318;2022-07-29T13:56:40;6.68;;;6.03;;
20020;SDS011;10171;42.694;23.318;2022-07-29T13:59:06;9.27;;;5.78;;
20020;SDS011;10171;42.694;23.318;2022-07-29T14:01:33;7.40;;;6.70;;
20020;SDS011;10171;42.694;23.318;2022-07-29T14:03:59;7.18;;;6.47;;
20020;SDS011;10171;42.694;23.318;2022-07-29T14:06:25;6.22;;;5.63;;
20020;SDS011;10171;42.694;23.318;2022-07-29T14:08:50;8.15;;;6.30;;
20020;SDS011;10171;42.694;23.318;2022-07-29T14:11:16;6.85;;;5.85;;
20020;SDS011;10171;42.694;23.318;2022-07-29T14:13:41;6.57;;;5.97;;
20020;SDS011;10171;42.694;23.318;2022-07-29T14:16:07;7.70;;;5.55;;
20020;SDS011;10171;42.694;23.318;2022-07-29T14:18:32;7.88;;;5.53;;
20020;SDS011;10171;42.694;23.318;2022-07-29T14:20:58;6.20;;;5.60;;
20020;SDS011;10171;42.694;23.318;2022-07-29T14:23:24;7.07;;;5.82;;
20020;SDS011;10171;42.694;23.318;2022-07-29T14:25:49;8.57;;;5.78;;
20020;SDS011;10171;42.694;23.318;2022-07-29T14:28:14;8.57;;;6.05;;
20020;SDS011;10171;42.694;23.318;2022-07-29T14:30:40;7.65;;;5.93;;
20020;SDS011;10171;42.694;23.318;2022-07-29T14:33:06;5.90;;;5.40;;
20020;SDS011;10171;42.694;23.318;2022-07-29T14:35:31;6.30;;;5.70;;
20020;SDS011;10171;42.694;23.318;2022-07-29T14:37:56;6.85;;;6.07;;
20020;SDS011;10171;42.694;23.318;2022-07-29T14:40:22;12.18;;;10.68;;
20020;SDS011;10171;42.694;23.318;2022-07-29T14:42:48;6.88;;;6.35;;
20020;SDS011;10171;42.694;23.318;2022-07-29T14:45:13;6.85;;;6.20;;
20020;SDS011;10171;42.694;23.318;2022-07-29T14:47:39;6.82;;;5.97;;
20020;SDS011;10171;42.694;23.318;2022-07-29T14:50:05;6.85;;;6.10;;
20020;SDS011;10171;42.694;23.318;2022-07-29T14:52:31;6.18;;;5.68;;
20020;SDS011;10171;42.694;23.318;2022-07-29T14:54:57;7.60;;;5.47;;
20020;SDS011;10171;42.694;23.318;2022-07-29T14:57:22;7.60;;;5.88;;
20020;SDS011;10171;42.694;23.318;2022-07-29T14:59:48;7.03;;;5.93;;
20020;SDS011;10171;42.694;23.318;2022-07-29T15:02:13;6.20;;;5.35;;
20020;SDS011;10171;42.694;23.318;2022-07-29T15:04:39;6.43;;;5.82;;
20020;SDS011;10171;42.694;23.318;2022-07-29T15:07:04;7.18;;;6.57;;
20020;SDS011;10171;42.694;23.318;2022-07-29T15:09:30;7.30;;;6.60;;
20020;SDS011;10171;42.694;23.318;2022-07-29T15:11:55;9.88;;;7.18;;
20020;SDS011;10171;42.694;23.318;2022-07-29T15:14:20;6.63;;;6.03;;
20020;SDS011;10171;42.694;23.318;2022-07-29T15:16:46;7.10;;;6.50;;
20020;SDS011;10171;42.694;23.318;2022-07-29T15:19:11;8.10;;;6.85;;
20020;SDS011;10171;42.694;23.318;2022-07-29T15:21:37;6.90;;;6.20;;
20020;SDS011;10171;42.694;23.318;2022-07-29T15:24:03;6.47;;;5.80;;
20020;SDS011;10171;42.694;23.318;2022-07-29T15:26:28;6.55;;;6.05;;
20020;SDS011;10171;42.694;23.318;2022-07-29T15:28:54;7.63;;;6.53;;
20020;SDS011;10171;42.694;23.318;2022-07-29T15:31:20;9.10;;;6.10;;
20020;SDS011;10171;42.694;23.318;2022-07-29T15:33:46;7.47;;;6.40;;
20020;SDS011;10171;42.694;23.318;2022-07-29T15:36:12;7.10;;;6.45;;
20020;SDS011;10171;42.694;23.318;2022-07-29T15:38:38;7.40;;;6.13;;
20020;SDS011;10171;42.694;23.318;2022-07-29T15:41:05;8.32;;;6.75;;
20020;SDS011;10171;42.694;23.318;2022-07-29T15:43:31;6.95;;;6.25;;